createdAt,value
2019-05-26T00:01:24.851Z,58.30
2019-05-26T00:02:57.133Z,58.30
2019-05-26T00:04:29.406Z,58.60
2019-05-26T00:06:01.658Z,58.50
2019-05-26T00:07:33.800Z,58.50
2019-05-26T00:09:06.044Z,58.60
2019-05-26T00:10:38.318Z,58.60
2019-05-26T00:12:10.622Z,58.70
2019-05-26T00:13:42.855Z,58.70
2019-05-26T00:15:15.045Z,58.70
2019-05-26T00:16:47.246Z,59.00
2019-05-26T00:18:19.385Z,59.10
2019-05-26T00:19:51.499Z,59.10
2019-05-26T00:21:23.769Z,58.90
2019-05-26T00:22:55.863Z,59.20
2019-05-26T00:24:27.948Z,59.30
2019-05-26T00:26:00.246Z,59.20
2019-05-26T00:27:32.455Z,59.50
2019-05-26T00:29:04.524Z,59.60
2019-05-26T00:30:36.781Z,59.70
2019-05-26T00:32:08.989Z,59.60
2019-05-26T00:33:41.104Z,59.70
2019-05-26T00:35:13.343Z,59.90
2019-05-26T00:36:45.589Z,59.80
2019-05-26T00:38:17.795Z,60.00
2019-05-26T00:39:49.903Z,60.00
2019-05-26T00:41:22.172Z,60.00
2019-05-26T00:42:54.300Z,60.00
2019-05-26T00:44:26.427Z,60.00
2019-05-26T00:45:58.536Z,60.40
2019-05-26T00:47:30.837Z,60.30
2019-05-26T00:49:03.506Z,60.30
2019-05-26T00:50:35.829Z,60.50
2019-05-26T00:52:08.033Z,60.70
2019-05-26T00:53:40.289Z,60.90
2019-05-26T00:55:12.711Z,61.10
2019-05-26T00:56:44.826Z,61.30
2019-05-26T00:58:16.949Z,61.40
2019-05-26T00:59:49.222Z,61.30
2019-05-26T01:01:21.495Z,61.70
2019-05-26T01:02:53.721Z,61.70
2019-05-26T01:04:26.032Z,61.80
2019-05-26T01:05:58.096Z,61.80
2019-05-26T01:07:30.340Z,62.00
2019-05-26T01:09:04.147Z,62.20
2019-05-26T01:10:36.257Z,62.00
2019-05-26T01:12:08.478Z,61.80
2019-05-26T01:13:40.546Z,62.10
2019-05-26T01:15:12.748Z,62.00
2019-05-26T01:16:44.942Z,62.00
2019-05-26T01:18:17.048Z,62.20
2019-05-26T01:19:49.339Z,62.00
2019-05-26T01:21:21.574Z,63.00
2019-05-26T01:22:54.107Z,62.10
2019-05-26T01:24:26.475Z,62.00
2019-05-26T01:25:58.625Z,62.10
2019-05-26T01:27:30.728Z,62.40
2019-05-26T01:29:03.070Z,62.10
2019-05-26T01:30:36.517Z,62.60
2019-05-26T01:32:08.695Z,62.40
2019-05-26T01:33:40.978Z,62.80
2019-05-26T01:35:13.215Z,62.20
2019-05-26T01:36:45.613Z,62.40
2019-05-26T01:38:24.314Z,62.40
2019-05-26T01:39:52.963Z,62.70
2019-05-26T01:41:25.156Z,62.70
2019-05-26T01:42:57.520Z,62.60
2019-05-26T01:44:29.663Z,62.50
2019-05-26T01:46:01.784Z,62.60
2019-05-26T01:47:33.864Z,62.40
2019-05-26T01:49:06.026Z,62.60
2019-05-26T01:50:38.180Z,62.40
2019-05-26T01:52:10.294Z,63.00
2019-05-26T01:53:42.597Z,63.20
2019-05-26T01:55:14.828Z,63.20
2019-05-26T01:56:46.946Z,63.30
2019-05-26T01:58:19.071Z,63.60
2019-05-26T01:59:51.126Z,63.20
2019-05-26T02:01:23.360Z,63.10
2019-05-26T02:02:55.599Z,63.00
2019-05-26T02:04:27.808Z,63.30
2019-05-26T02:05:59.935Z,63.40
2019-05-26T02:07:32.448Z,63.50
2019-05-26T02:09:06.256Z,64.30
2019-05-26T02:10:38.487Z,63.50
2019-05-26T02:12:10.730Z,63.70
2019-05-26T02:13:42.857Z,63.70
2019-05-26T02:15:17.372Z,63.90
2019-05-26T02:16:49.648Z,64.80
2019-05-26T02:18:21.975Z,64.30
2019-05-26T02:19:54.129Z,64.40
2019-05-26T02:21:26.342Z,64.70
2019-05-26T02:22:58.435Z,64.80
2019-05-26T02:24:30.996Z,65.00
2019-05-26T02:26:03.359Z,64.70
2019-05-26T02:27:35.475Z,65.00
2019-05-26T02:29:07.704Z,64.60
2019-05-26T02:30:39.840Z,64.70
2019-05-26T02:32:11.959Z,64.70
2019-05-26T02:33:44.238Z,64.80
2019-05-26T02:35:16.635Z,64.70
2019-05-26T02:36:48.709Z,65.50
2019-05-26T02:38:25.666Z,65.00
2019-05-26T02:39:54.999Z,65.20
2019-05-26T02:41:27.267Z,65.50
2019-05-26T02:42:59.643Z,65.50
2019-05-26T02:44:31.885Z,65.50
2019-05-26T02:46:04.107Z,65.80
2019-05-26T02:47:36.365Z,65.80
2019-05-26T02:49:08.617Z,65.80
2019-05-26T02:50:40.692Z,66.10
2019-05-26T02:52:12.937Z,66.10
2019-05-26T02:53:45.247Z,66.10
2019-05-26T02:55:17.878Z,66.10
2019-05-26T02:56:50.021Z,66.10
2019-05-26T02:58:22.317Z,66.00
2019-05-26T02:59:54.457Z,66.40
2019-05-26T03:01:27.061Z,66.50
2019-05-26T03:02:59.319Z,66.50
2019-05-26T03:04:31.882Z,66.70
2019-05-26T03:06:04.689Z,66.70
2019-05-26T03:07:39.694Z,66.70
2019-05-26T03:09:22.821Z,66.60
2019-05-26T03:10:49.533Z,66.70
2019-05-26T03:12:23.706Z,66.80
2019-05-26T03:13:58.864Z,66.90
2019-05-26T03:15:33.753Z,67.10
2019-05-26T03:17:05.878Z,67.10
2019-05-26T03:18:39.628Z,67.30
2019-05-26T03:20:13.872Z,67.30
2019-05-26T03:21:47.825Z,67.40
2019-05-26T03:23:19.995Z,67.30
2019-05-26T03:24:53.110Z,67.60
2019-05-26T03:26:27.400Z,67.50
2019-05-26T03:27:59.718Z,67.60
2019-05-26T03:29:32.003Z,67.80
2019-05-26T03:31:04.105Z,67.70
2019-05-26T03:32:36.264Z,67.70
2019-05-26T03:34:08.431Z,67.60
2019-05-26T03:35:40.665Z,67.80
2019-05-26T03:37:12.814Z,67.90
2019-05-26T03:38:45.161Z,68.00
2019-05-26T03:40:17.398Z,67.80
2019-05-26T03:41:49.595Z,68.30
2019-05-26T03:43:21.833Z,68.10
2019-05-26T03:44:53.989Z,68.20
2019-05-26T03:46:26.228Z,68.60
2019-05-26T03:47:58.489Z,68.60
2019-05-26T03:49:30.585Z,68.50
2019-05-26T03:51:02.861Z,68.80
2019-05-26T03:52:34.941Z,69.00
2019-05-26T03:54:07.394Z,69.00
2019-05-26T03:55:39.485Z,69.10
2019-05-26T03:57:11.660Z,69.30
2019-05-26T03:58:43.786Z,69.40
2019-05-26T04:00:16.038Z,69.40
2019-05-26T04:01:48.335Z,69.40
2019-05-26T04:03:20.484Z,69.50
2019-05-26T04:04:52.756Z,69.30
2019-05-26T04:06:24.960Z,69.50
2019-05-26T04:07:57.199Z,69.40
2019-05-26T04:09:29.422Z,69.70
2019-05-26T04:11:01.666Z,69.50
2019-05-26T04:12:33.917Z,69.60
2019-05-26T04:14:06.002Z,69.70
2019-05-26T04:15:38.204Z,69.60
2019-05-26T04:17:10.469Z,69.60
2019-05-26T04:18:42.775Z,70.00
2019-05-26T04:20:15.007Z,71.20
2019-05-26T04:21:47.263Z,70.20
2019-05-26T04:23:19.558Z,70.00
2019-05-26T04:24:57.670Z,70.10
2019-05-26T04:26:29.783Z,70.20
2019-05-26T04:28:01.858Z,70.40
2019-05-26T04:29:34.025Z,70.40
2019-05-26T04:31:06.280Z,70.40
2019-05-26T04:32:38.423Z,70.20
2019-05-26T04:34:10.649Z,70.10
2019-05-26T04:35:42.734Z,70.50
2019-05-26T04:37:14.979Z,70.20
2019-05-26T04:38:47.172Z,70.20
2019-05-26T04:40:28.086Z,70.40
2019-05-26T04:41:53.496Z,70.50
2019-05-26T04:43:25.609Z,70.20
2019-05-26T04:44:57.719Z,70.30
2019-05-26T04:46:30.006Z,70.30
2019-05-26T04:48:02.123Z,70.40
2019-05-26T04:49:37.439Z,70.60
2019-05-26T04:51:08.535Z,70.60
2019-05-26T04:52:40.840Z,70.80
2019-05-26T04:54:13.145Z,70.80
2019-05-26T04:55:45.305Z,70.80
2019-05-26T04:57:17.544Z,70.80
2019-05-26T04:58:49.833Z,70.80
2019-05-26T05:00:22.060Z,70.80
2019-05-26T05:01:54.311Z,71.00
2019-05-26T05:03:26.555Z,70.80
2019-05-26T05:04:58.690Z,70.80
2019-05-26T05:06:30.987Z,71.30
2019-05-26T05:08:03.091Z,70.50
2019-05-26T05:09:35.209Z,70.60
2019-05-26T05:11:07.411Z,70.60
2019-05-26T05:12:39.636Z,70.60
2019-05-26T05:14:11.757Z,70.80
2019-05-26T05:15:44.000Z,70.30
2019-05-26T05:17:16.278Z,70.50
2019-05-26T05:18:48.350Z,70.50
2019-05-26T05:20:20.461Z,70.60
2019-05-26T05:21:52.691Z,70.30
2019-05-26T05:23:24.796Z,70.70
2019-05-26T05:24:57.274Z,70.70
2019-05-26T05:26:29.408Z,70.50
2019-05-26T05:28:01.516Z,71.30
2019-05-26T05:29:33.826Z,70.20
2019-05-26T05:31:06.100Z,70.20
2019-05-26T05:32:38.332Z,70.10
2019-05-26T05:34:10.414Z,70.00
2019-05-26T05:35:42.565Z,70.20
2019-05-26T05:37:14.811Z,70.30
2019-05-26T05:38:47.056Z,70.10
2019-05-26T05:40:21.084Z,70.00
2019-05-26T05:41:53.181Z,69.90
2019-05-26T05:43:25.375Z,69.90
2019-05-26T05:44:57.520Z,69.70
2019-05-26T05:46:29.859Z,69.80
2019-05-26T05:48:02.843Z,69.70
2019-05-26T05:49:34.920Z,69.70
2019-05-26T05:51:07.227Z,70.00
2019-05-26T05:52:39.487Z,69.90
2019-05-26T05:54:11.565Z,70.00
2019-05-26T05:55:43.856Z,69.80
2019-05-26T05:57:16.121Z,70.00
2019-05-26T05:58:48.207Z,70.00
2019-05-26T06:00:20.422Z,69.80
2019-05-26T06:01:52.553Z,69.80
2019-05-26T06:03:24.686Z,69.50
2019-05-26T06:04:56.884Z,69.60
2019-05-26T06:06:29.085Z,69.50
2019-05-26T06:08:01.340Z,69.60
2019-05-26T06:09:33.564Z,69.80
2019-05-26T06:11:16.038Z,69.70
2019-05-26T06:12:39.994Z,69.60
2019-05-26T06:14:12.226Z,69.60
2019-05-26T06:15:44.455Z,69.70
2019-05-26T06:17:16.555Z,70.00
2019-05-26T06:18:48.767Z,69.70
2019-05-26T06:20:20.832Z,69.80
2019-05-26T06:21:53.116Z,69.50
2019-05-26T06:23:25.234Z,69.30
2019-05-26T06:24:57.325Z,70.20
2019-05-26T06:26:29.414Z,69.50
2019-05-26T06:28:01.696Z,69.40
2019-05-26T06:29:33.899Z,69.50
2019-05-26T06:31:06.112Z,69.50
2019-05-26T06:32:38.274Z,69.60
2019-05-26T06:34:10.390Z,69.90
2019-05-26T06:35:42.620Z,69.80
2019-05-26T06:37:14.786Z,70.20
2019-05-26T06:38:46.904Z,69.90
2019-05-26T06:40:19.148Z,70.00
2019-05-26T06:41:51.277Z,70.00
2019-05-26T06:43:23.438Z,70.20
2019-05-26T06:44:55.541Z,71.00
2019-05-26T06:46:27.686Z,70.40
2019-05-26T06:47:59.785Z,70.20
2019-05-26T06:49:31.885Z,70.00
2019-05-26T06:51:04.116Z,69.90
2019-05-26T06:52:36.184Z,70.90
2019-05-26T06:54:08.283Z,70.00
2019-05-26T06:55:40.524Z,69.70
2019-05-26T06:57:12.820Z,69.30
2019-05-26T06:58:44.959Z,69.40
2019-05-26T07:00:17.297Z,69.30
2019-05-26T07:01:49.437Z,69.50
2019-05-26T07:03:21.570Z,69.50
2019-05-26T07:04:53.813Z,69.50
2019-05-26T07:06:26.048Z,69.30
2019-05-26T07:07:58.345Z,69.10
2019-05-26T07:09:30.625Z,69.10
2019-05-26T07:11:02.902Z,69.20
2019-05-26T07:12:35.173Z,68.90
2019-05-26T07:14:07.460Z,68.40
2019-05-26T07:15:39.698Z,68.20
2019-05-26T07:17:11.820Z,68.20
2019-05-26T07:18:44.076Z,67.80
2019-05-26T07:20:16.602Z,67.40
2019-05-26T07:21:48.762Z,67.00
2019-05-26T07:23:21.008Z,66.30
2019-05-26T07:24:53.240Z,65.80
2019-05-26T07:26:25.357Z,65.30
2019-05-26T07:27:57.536Z,64.80
2019-05-26T07:29:29.669Z,64.20
2019-05-26T07:31:01.776Z,63.60
2019-05-26T07:32:34.049Z,62.70
2019-05-26T07:34:06.176Z,61.90
2019-05-26T07:35:38.564Z,61.30
2019-05-26T07:37:10.649Z,60.60
2019-05-26T07:38:42.948Z,59.70
2019-05-26T07:40:15.152Z,58.80
2019-05-26T07:41:47.391Z,58.10
2019-05-26T07:43:19.548Z,57.60
2019-05-26T07:44:51.756Z,57.40
2019-05-26T07:46:23.878Z,57.00
2019-05-26T07:47:56.116Z,56.30
2019-05-26T07:49:28.215Z,55.10
2019-05-26T07:51:00.336Z,54.50
2019-05-26T07:52:32.398Z,54.20
2019-05-26T07:54:04.522Z,54.30
2019-05-26T07:55:36.608Z,53.40
2019-05-26T07:57:08.722Z,52.70
2019-05-26T07:58:40.952Z,52.80
2019-05-26T08:00:13.363Z,52.40
2019-05-26T08:01:45.587Z,51.90
2019-05-26T08:03:17.830Z,51.80
2019-05-26T08:04:49.939Z,51.10
2019-05-26T08:06:22.046Z,51.00
2019-05-26T08:08:11.236Z,51.00
2019-05-26T08:09:28.274Z,50.50
2019-05-26T08:11:00.534Z,50.60
2019-05-26T08:12:32.627Z,50.20
2019-05-26T08:14:04.729Z,49.90
2019-05-26T08:15:37.668Z,49.70
2019-05-26T08:17:09.925Z,49.50
2019-05-26T08:18:42.164Z,48.80
2019-05-26T08:20:15.789Z,49.70
2019-05-26T08:21:48.037Z,49.10
2019-05-26T08:23:20.140Z,49.10
2019-05-26T08:24:52.338Z,48.80
2019-05-26T08:26:24.490Z,48.80
2019-05-26T08:27:56.696Z,49.60
2019-05-26T08:29:28.919Z,48.40
2019-05-26T08:31:01.152Z,48.00
2019-05-26T08:32:33.384Z,48.30
2019-05-26T08:34:05.662Z,48.10
2019-05-26T08:35:37.781Z,47.50
2019-05-26T08:37:10.060Z,47.50
2019-05-26T08:38:42.160Z,47.40
2019-05-26T08:40:17.230Z,46.60
2019-05-26T08:41:51.111Z,46.70
2019-05-26T08:43:23.233Z,46.80
2019-05-26T08:44:55.450Z,46.20
2019-05-26T08:46:27.567Z,45.30
2019-05-26T08:47:59.796Z,45.00
2019-05-26T08:49:32.207Z,45.00
2019-05-26T08:51:04.333Z,45.20
2019-05-26T08:52:36.548Z,45.20
2019-05-26T08:54:08.871Z,44.80
2019-05-26T08:55:41.112Z,44.20
2019-05-26T08:57:13.363Z,45.40
2019-05-26T08:58:45.966Z,44.90
2019-05-26T09:00:18.380Z,45.20
2019-05-26T09:01:50.540Z,45.40
2019-05-26T09:03:22.618Z,44.60
2019-05-26T09:04:54.741Z,44.50
2019-05-26T09:06:26.890Z,44.60
2019-05-26T09:07:58.992Z,44.30
2019-05-26T09:09:31.281Z,43.30
2019-05-26T09:11:03.412Z,44.00
2019-05-26T09:12:35.531Z,44.00
2019-05-26T09:14:07.674Z,43.80
2019-05-26T09:15:41.389Z,43.90
2019-05-26T09:17:13.477Z,43.70
2019-05-26T09:18:45.824Z,43.50
2019-05-26T09:20:19.528Z,43.20
2019-05-26T09:21:51.810Z,41.60
2019-05-26T09:23:24.102Z,41.80
2019-05-26T09:24:56.258Z,42.10
2019-05-26T09:26:28.368Z,42.10
2019-05-26T09:28:00.645Z,41.80
2019-05-26T09:29:32.893Z,41.80
2019-05-26T09:31:05.111Z,42.30
2019-05-26T09:32:37.242Z,42.90
2019-05-26T09:34:09.335Z,42.90
2019-05-26T09:35:41.458Z,43.50
2019-05-26T09:37:13.682Z,44.30
2019-05-26T09:38:45.988Z,43.70
2019-05-26T09:40:18.399Z,43.50
2019-05-26T09:41:50.503Z,43.00
2019-05-26T09:43:22.708Z,42.10
2019-05-26T09:44:54.982Z,42.20
2019-05-26T09:46:27.199Z,42.30
2019-05-26T09:47:59.671Z,43.20
2019-05-26T09:49:31.746Z,42.40
2019-05-26T09:51:04.050Z,42.20
2019-05-26T09:52:36.188Z,41.60
2019-05-26T09:54:08.292Z,41.40
2019-05-26T09:55:40.518Z,42.50
2019-05-26T09:57:12.678Z,41.40
2019-05-26T09:58:44.947Z,41.40
2019-05-26T10:00:17.904Z,41.40
2019-05-26T10:01:50.060Z,41.80
2019-05-26T10:03:22.278Z,41.50
2019-05-26T10:04:54.621Z,41.90
2019-05-26T10:06:26.825Z,42.50
2019-05-26T10:07:59.030Z,42.50
2019-05-26T10:09:31.292Z,41.40
2019-05-26T10:11:03.658Z,40.30
2019-05-26T10:12:35.818Z,40.80
2019-05-26T10:14:08.201Z,40.50
2019-05-26T10:15:40.458Z,39.80
2019-05-26T10:17:12.617Z,39.80
2019-05-26T10:18:44.851Z,40.20
2019-05-26T10:20:17.185Z,40.50
2019-05-26T10:21:49.529Z,40.70
2019-05-26T10:23:21.772Z,40.50
2019-05-26T10:24:53.876Z,40.60
2019-05-26T10:26:26.094Z,40.30
2019-05-26T10:27:58.306Z,40.70
2019-05-26T10:29:30.429Z,40.70
2019-05-26T10:31:02.748Z,40.40
2019-05-26T10:32:35.030Z,39.70
2019-05-26T10:34:07.334Z,40.00
2019-05-26T10:35:39.531Z,39.20
2019-05-26T10:37:11.765Z,38.40
2019-05-26T10:38:43.989Z,39.00
2019-05-26T10:40:16.436Z,39.10
2019-05-26T10:41:48.684Z,39.00
2019-05-26T10:43:20.924Z,39.30
2019-05-26T10:44:53.057Z,38.90
2019-05-26T10:46:25.168Z,39.60
2019-05-26T10:47:57.671Z,39.00
2019-05-26T10:49:29.998Z,40.30
2019-05-26T10:51:02.436Z,39.60
2019-05-26T10:52:34.732Z,39.70
2019-05-26T10:54:06.970Z,39.50
2019-05-26T10:55:39.077Z,39.80
2019-05-26T10:57:11.271Z,39.80
2019-05-26T10:58:43.437Z,39.80
2019-05-26T11:00:16.118Z,39.60
2019-05-26T11:01:48.379Z,39.00
2019-05-26T11:03:20.602Z,39.10
2019-05-26T11:04:52.874Z,39.50
2019-05-26T11:06:25.202Z,39.70
2019-05-26T11:07:57.358Z,39.80
2019-05-26T11:09:29.612Z,39.90
2019-05-26T11:11:01.876Z,40.20
2019-05-26T11:12:34.062Z,39.90
2019-05-26T11:14:06.280Z,39.90
2019-05-26T11:15:38.529Z,39.50
2019-05-26T11:17:10.759Z,39.00
2019-05-26T11:18:42.896Z,39.30
2019-05-26T11:20:15.407Z,39.00
2019-05-26T11:21:47.510Z,39.30
2019-05-26T11:23:19.860Z,39.80
2019-05-26T11:24:52.038Z,39.90
2019-05-26T11:26:24.198Z,39.60
2019-05-26T11:27:56.419Z,39.60
2019-05-26T11:29:28.775Z,40.00
2019-05-26T11:31:00.944Z,40.00
2019-05-26T11:32:33.217Z,40.10
2019-05-26T11:34:05.298Z,39.50
2019-05-26T11:35:37.446Z,39.60
2019-05-26T11:37:09.731Z,39.60
2019-05-26T11:38:41.867Z,39.80
2019-05-26T11:40:14.217Z,39.60
2019-05-26T11:41:54.587Z,39.00
2019-05-26T11:43:20.729Z,39.20
2019-05-26T11:44:52.915Z,39.20
2019-05-26T11:46:25.013Z,39.10
2019-05-26T11:47:57.137Z,39.40
2019-05-26T11:49:29.369Z,40.00
2019-05-26T11:51:01.794Z,40.40
2019-05-26T11:52:33.841Z,40.20
2019-05-26T11:54:06.100Z,39.90
2019-05-26T11:55:38.343Z,39.80
2019-05-26T11:57:10.444Z,40.30
2019-05-26T11:58:42.731Z,41.00
2019-05-26T12:00:15.729Z,40.00
2019-05-26T12:01:48.016Z,40.20
2019-05-26T12:03:20.102Z,40.20
2019-05-26T12:04:52.382Z,40.20
2019-05-26T12:06:24.703Z,40.00
2019-05-26T12:07:56.811Z,39.90
2019-05-26T12:09:28.981Z,39.80
2019-05-26T12:11:01.112Z,39.60
2019-05-26T12:12:33.243Z,39.60
2019-05-26T12:14:05.442Z,40.50
2019-05-26T12:15:37.580Z,40.00
2019-05-26T12:17:09.772Z,39.60
2019-05-26T12:18:42.016Z,40.00
2019-05-26T12:20:14.270Z,39.50
2019-05-26T12:21:46.356Z,40.30
2019-05-26T12:23:18.597Z,39.80
2019-05-26T12:24:50.893Z,39.50
2019-05-26T12:26:23.026Z,39.40
2019-05-26T12:27:55.417Z,39.40
2019-05-26T12:29:27.608Z,39.70
2019-05-26T12:30:59.683Z,39.40
2019-05-26T12:32:31.921Z,39.90
2019-05-26T12:34:04.033Z,39.30
2019-05-26T12:35:45.655Z,39.70
2019-05-26T12:37:17.913Z,39.60
2019-05-26T12:38:50.151Z,40.10
2019-05-26T12:40:22.234Z,40.10
2019-05-26T12:41:54.370Z,40.00
2019-05-26T12:43:26.516Z,39.70
2019-05-26T12:44:58.632Z,40.20
2019-05-26T12:46:30.756Z,40.30
2019-05-26T12:48:03.112Z,39.70
2019-05-26T12:49:35.395Z,39.60
2019-05-26T12:51:07.577Z,39.90
2019-05-26T12:52:39.843Z,40.00
2019-05-26T12:54:12.114Z,40.30
2019-05-26T12:55:44.343Z,39.20
2019-05-26T12:57:16.612Z,39.90
2019-05-26T12:58:48.715Z,40.30
2019-05-26T13:00:22.431Z,40.60
2019-05-26T13:01:54.652Z,40.80
2019-05-26T13:03:26.891Z,39.90
2019-05-26T13:04:59.020Z,39.90
2019-05-26T13:06:31.260Z,39.30
2019-05-26T13:08:03.792Z,39.50
2019-05-26T13:09:36.070Z,39.80
2019-05-26T13:11:08.195Z,39.80
2019-05-26T13:12:40.426Z,39.50
2019-05-26T13:14:12.674Z,39.60
2019-05-26T13:15:44.907Z,39.60
2019-05-26T13:17:17.078Z,39.50
2019-05-26T13:18:49.152Z,38.60
2019-05-26T13:20:22.874Z,39.20
2019-05-26T13:21:55.100Z,39.50
2019-05-26T13:23:27.340Z,39.70
2019-05-26T13:24:59.454Z,39.70
2019-05-26T13:26:31.692Z,38.70
2019-05-26T13:28:03.968Z,38.70
2019-05-26T13:29:36.363Z,38.90
2019-05-26T13:31:08.660Z,39.30
2019-05-26T13:32:40.768Z,39.60
2019-05-26T13:34:12.880Z,39.40
2019-05-26T13:35:45.112Z,38.90
2019-05-26T13:37:17.368Z,39.00
2019-05-26T13:38:49.534Z,38.00
2019-05-26T13:40:21.767Z,38.30
2019-05-26T13:41:53.904Z,38.80
2019-05-26T13:43:26.040Z,39.10
2019-05-26T13:44:58.276Z,39.70
2019-05-26T13:46:30.383Z,39.60
2019-05-26T13:48:02.688Z,39.70
2019-05-26T13:49:34.775Z,39.10
2019-05-26T13:51:07.058Z,40.00
2019-05-26T13:52:39.311Z,39.40
2019-05-26T13:54:11.556Z,39.40
2019-05-26T13:55:43.623Z,39.30
2019-05-26T13:57:15.857Z,39.50
2019-05-26T13:58:47.981Z,40.00
2019-05-26T14:00:22.438Z,40.00
2019-05-26T14:01:54.760Z,40.20
2019-05-26T14:03:26.870Z,40.30
2019-05-26T14:04:59.255Z,40.10
2019-05-26T14:06:31.578Z,39.60
2019-05-26T14:08:03.834Z,40.10
2019-05-26T14:09:36.099Z,39.80
2019-05-26T14:11:08.192Z,39.60
2019-05-26T14:12:40.428Z,39.30
2019-05-26T14:14:12.656Z,39.40
2019-05-26T14:15:45.810Z,38.80
2019-05-26T14:17:19.186Z,39.00
2019-05-26T14:18:53.600Z,39.90
2019-05-26T14:20:33.281Z,39.00
2019-05-26T14:22:05.561Z,39.80
2019-05-26T14:23:37.854Z,39.30
2019-05-26T14:25:10.119Z,39.00
2019-05-26T14:26:42.369Z,39.20
2019-05-26T14:28:14.645Z,39.60
2019-05-26T14:29:46.752Z,39.30
2019-05-26T14:31:18.868Z,39.60
2019-05-26T14:32:51.042Z,39.70
2019-05-26T14:34:23.416Z,39.70
2019-05-26T14:35:55.623Z,39.90
2019-05-26T14:37:27.865Z,40.20
2019-05-26T14:39:00.222Z,39.90
2019-05-26T14:40:32.311Z,39.20
2019-05-26T14:42:04.546Z,39.40
2019-05-26T14:43:36.632Z,39.60
2019-05-26T14:45:08.736Z,39.90
2019-05-26T14:46:40.871Z,40.10
2019-05-26T14:48:13.092Z,39.70
2019-05-26T14:49:45.218Z,39.80
2019-05-26T14:51:17.490Z,39.60
2019-05-26T14:52:49.698Z,40.00
2019-05-26T14:54:21.912Z,39.50
2019-05-26T14:55:54.040Z,39.10
2019-05-26T14:57:26.286Z,39.20
2019-05-26T14:58:58.490Z,40.20
2019-05-26T15:00:30.585Z,39.90
2019-05-26T15:02:02.840Z,39.70
2019-05-26T15:03:35.201Z,39.60
2019-05-26T15:05:08.152Z,39.90
2019-05-26T15:06:40.405Z,39.60
2019-05-26T15:08:12.685Z,39.30
2019-05-26T15:09:44.876Z,39.40
2019-05-26T15:11:17.121Z,39.50
2019-05-26T15:12:49.399Z,38.90
2019-05-26T15:14:21.647Z,38.70
2019-05-26T15:16:08.762Z,39.00
2019-05-26T15:17:27.769Z,39.00
2019-05-26T15:18:59.837Z,39.60
2019-05-26T15:20:32.110Z,39.60
2019-05-26T15:22:04.332Z,39.60
2019-05-26T15:23:36.577Z,39.90
2019-05-26T15:25:08.823Z,39.70
2019-05-26T15:26:40.888Z,39.80
2019-05-26T15:28:13.013Z,39.90
2019-05-26T15:29:45.160Z,40.30
2019-05-26T15:31:17.398Z,40.60
2019-05-26T15:32:49.736Z,40.70
2019-05-26T15:34:21.880Z,41.10
2019-05-26T15:35:54.131Z,41.50
2019-05-26T15:37:26.437Z,42.20
2019-05-26T15:38:58.528Z,41.50
2019-05-26T15:40:30.952Z,40.70
2019-05-26T15:42:03.140Z,40.80
2019-05-26T15:43:35.301Z,40.90
2019-05-26T15:45:08.295Z,41.10
2019-05-26T15:46:41.167Z,41.70
2019-05-26T15:48:13.266Z,41.20
2019-05-26T15:49:45.366Z,41.30
2019-05-26T15:51:17.494Z,41.60
2019-05-26T15:52:49.758Z,41.60
2019-05-26T15:54:21.867Z,40.40
2019-05-26T15:55:53.999Z,40.20
2019-05-26T15:57:26.104Z,40.80
2019-05-26T15:58:58.371Z,41.90
2019-05-26T16:00:30.574Z,41.40
2019-05-26T16:02:02.727Z,41.90
2019-05-26T16:03:34.842Z,41.90
2019-05-26T16:05:07.407Z,41.10
2019-05-26T16:06:39.745Z,40.60
2019-05-26T16:08:11.940Z,40.80
2019-05-26T16:09:44.159Z,41.70
2019-05-26T16:11:16.286Z,41.70
2019-05-26T16:12:48.717Z,42.10
2019-05-26T16:14:21.073Z,41.70
2019-05-26T16:15:53.367Z,41.70
2019-05-26T16:17:25.606Z,42.00
2019-05-26T16:18:57.729Z,41.90
2019-05-26T16:20:29.844Z,41.20
2019-05-26T16:22:02.057Z,41.10
2019-05-26T16:23:34.149Z,41.30
2019-05-26T16:25:06.568Z,41.50
2019-05-26T16:26:38.692Z,41.90
2019-05-26T16:28:10.966Z,42.00
2019-05-26T16:29:46.388Z,42.20
2019-05-26T16:31:17.345Z,42.20
2019-05-26T16:32:49.546Z,42.50
2019-05-26T16:34:21.629Z,42.60
2019-05-26T16:35:55.639Z,43.00
2019-05-26T16:37:27.912Z,43.00
2019-05-26T16:39:00.280Z,42.90
2019-05-26T16:40:32.414Z,42.70
2019-05-26T16:42:04.535Z,42.60
2019-05-26T16:43:36.818Z,42.50
2019-05-26T16:45:09.024Z,42.60
2019-05-26T16:46:55.182Z,42.70
2019-05-26T16:48:15.316Z,42.60
2019-05-26T16:49:47.479Z,42.80
2019-05-26T16:51:19.540Z,43.40
2019-05-26T16:52:54.391Z,42.20
2019-05-26T16:54:25.710Z,42.50
2019-05-26T16:55:57.852Z,42.80
2019-05-26T16:57:29.958Z,42.90
2019-05-26T16:59:02.220Z,42.90
2019-05-26T17:00:34.303Z,43.00
2019-05-26T17:02:06.404Z,42.90
2019-05-26T17:03:38.635Z,43.10
2019-05-26T17:05:11.025Z,43.70
2019-05-26T17:06:43.289Z,44.10
2019-05-26T17:08:15.486Z,44.30
2019-05-26T17:09:47.592Z,44.60
2019-05-26T17:11:19.664Z,44.60
2019-05-26T17:12:51.846Z,44.50
2019-05-26T17:14:24.153Z,44.60
2019-05-26T17:15:56.293Z,44.50
2019-05-26T17:17:28.503Z,44.60
2019-05-26T17:19:00.786Z,44.90
2019-05-26T17:20:33.015Z,45.20
2019-05-26T17:22:05.155Z,45.40
2019-05-26T17:23:37.392Z,45.60
2019-05-26T17:25:10.056Z,45.50
2019-05-26T17:26:42.379Z,45.20
2019-05-26T17:28:14.465Z,45.20
2019-05-26T17:29:46.717Z,45.30
2019-05-26T17:31:19.103Z,45.10
2019-05-26T17:32:51.211Z,45.00
2019-05-26T17:34:23.378Z,45.00
2019-05-26T17:35:55.500Z,45.50
2019-05-26T17:37:27.604Z,45.80
2019-05-26T17:38:59.758Z,45.60
2019-05-26T17:40:31.993Z,45.70
2019-05-26T17:42:04.316Z,46.50
2019-05-26T17:43:36.402Z,45.60
2019-05-26T17:45:08.625Z,45.60
2019-05-26T17:46:40.840Z,45.70
2019-05-26T17:48:13.129Z,45.70
2019-05-26T17:49:45.197Z,45.80
2019-05-26T17:51:17.600Z,45.80
2019-05-26T17:52:50.076Z,45.90
2019-05-26T17:54:22.776Z,45.90
2019-05-26T17:56:00.605Z,45.90
2019-05-26T17:57:33.078Z,45.90
2019-05-26T17:59:07.896Z,45.90
2019-05-26T18:00:40.281Z,46.00
2019-05-26T18:02:12.488Z,46.00
2019-05-26T18:03:44.598Z,45.90
2019-05-26T18:05:16.792Z,45.80
2019-05-26T18:06:49.013Z,45.80
2019-05-26T18:08:21.240Z,45.80
2019-05-26T18:09:53.522Z,45.70
2019-05-26T18:11:25.754Z,45.90
2019-05-26T18:12:57.966Z,45.90
2019-05-26T18:14:30.237Z,46.10
2019-05-26T18:16:02.598Z,46.00
2019-05-26T18:17:46.329Z,46.20
2019-05-26T18:19:08.756Z,47.00
2019-05-26T18:20:41.059Z,46.30
2019-05-26T18:22:14.690Z,46.20
2019-05-26T18:23:46.900Z,46.20
2019-05-26T18:25:19.061Z,46.20
2019-05-26T18:26:51.178Z,46.20
2019-05-26T18:28:23.426Z,46.10
2019-05-26T18:29:55.711Z,46.10
2019-05-26T18:31:29.195Z,46.20
2019-05-26T18:33:01.595Z,46.20
2019-05-26T18:34:33.881Z,46.20
2019-05-26T18:36:06.172Z,46.20
2019-05-26T18:37:38.261Z,46.60
2019-05-26T18:39:10.370Z,46.20
2019-05-26T18:40:42.617Z,46.20
2019-05-26T18:42:14.889Z,46.20
2019-05-26T18:43:46.975Z,46.20
2019-05-26T18:45:19.181Z,46.30
2019-05-26T18:46:53.524Z,46.40
2019-05-26T18:48:25.340Z,46.40
2019-05-26T18:49:57.618Z,46.40
2019-05-26T18:51:29.869Z,46.40
2019-05-26T18:53:01.992Z,46.50
2019-05-26T18:54:34.155Z,46.50
2019-05-26T18:56:06.391Z,46.60
2019-05-26T18:57:38.516Z,46.70
2019-05-26T18:59:10.826Z,46.80
2019-05-26T19:00:43.101Z,46.50
2019-05-26T19:02:15.257Z,46.60
2019-05-26T19:03:47.478Z,46.70
2019-05-26T19:05:32.435Z,46.90
2019-05-26T19:06:53.739Z,46.80
2019-05-26T19:08:25.885Z,47.00
2019-05-26T19:09:58.053Z,46.90
2019-05-26T19:11:30.317Z,47.00
2019-05-26T19:13:02.482Z,46.90
2019-05-26T19:14:34.693Z,47.70
2019-05-26T19:16:07.007Z,47.10
2019-05-26T19:17:39.108Z,47.10
2019-05-26T19:19:11.306Z,47.40
2019-05-26T19:20:43.487Z,47.30
2019-05-26T19:22:15.737Z,47.30
2019-05-26T19:23:47.813Z,47.40
2019-05-26T19:25:20.073Z,47.30
2019-05-26T19:26:52.329Z,47.50
2019-05-26T19:28:24.432Z,48.20
2019-05-26T19:29:56.568Z,47.60
2019-05-26T19:31:29.168Z,47.60
2019-05-26T19:33:01.395Z,47.80
2019-05-26T19:34:33.516Z,47.80
2019-05-26T19:36:09.420Z,47.90
2019-05-26T19:37:39.687Z,48.00
2019-05-26T19:39:11.981Z,48.10
2019-05-26T19:40:44.199Z,48.10
2019-05-26T19:42:16.354Z,48.40
2019-05-26T19:43:48.529Z,48.30
2019-05-26T19:45:20.656Z,48.30
2019-05-26T19:46:53.242Z,48.30
2019-05-26T19:48:35.713Z,48.40
2019-05-26T19:49:59.997Z,48.40